createdAt,value
2019-05-02T00:00:21.713Z,132.83
2019-05-02T00:02:59.774Z,132.52
2019-05-02T00:05:32.029Z,139.28
2019-05-02T00:08:04.423Z,131.00
2019-05-02T00:10:36.865Z,133.40
2019-05-02T00:13:07.128Z,122.60
2019-05-02T00:15:44.695Z,120.92
2019-05-02T00:18:15.736Z,123.72
2019-05-02T00:20:46.234Z,124.42
2019-05-02T00:23:16.411Z,121.10
2019-05-02T00:25:47.340Z,125.33
2019-05-02T00:28:18.592Z,134.52
2019-05-02T00:33:19.057Z,120.33
2019-05-02T00:35:49.065Z,132.90
2019-05-02T00:38:18.957Z,118.65
2019-05-02T00:40:48.881Z,122.67
2019-05-02T00:43:18.731Z,124.78
2019-05-02T00:45:48.648Z,114.28
2019-05-02T00:48:24.326Z,123.15
2019-05-02T00:50:54.289Z,126.10
2019-05-02T00:53:24.161Z,112.28
2019-05-02T00:55:54.034Z,118.00
2019-05-02T00:58:27.219Z,127.67
2019-05-02T01:01:13.174Z,112.95
2019-05-02T01:03:47.148Z,120.08
2019-05-02T01:06:16.225Z,113.88
2019-05-02T01:08:46.109Z,102.15
2019-05-02T01:11:16.052Z,110.30
2019-05-02T01:13:50.442Z,124.13
2019-05-02T01:16:19.155Z,111.05
2019-05-02T01:18:49.053Z,121.40
2019-05-02T01:21:19.001Z,110.12
2019-05-02T01:23:48.881Z,106.70
2019-05-02T01:26:18.498Z,112.32
2019-05-02T01:29:09.038Z,108.72
2019-05-02T01:31:40.347Z,110.40
2019-05-02T01:34:26.873Z,113.25
2019-05-02T01:36:58.200Z,109.52
2019-05-02T01:39:28.261Z,117.17
2019-05-02T01:41:59.968Z,106.83
2019-05-02T01:44:31.056Z,105.12
2019-05-02T01:47:01.147Z,113.25
2019-05-02T01:49:31.042Z,110.80
2019-05-02T01:52:00.973Z,107.70
2019-05-02T01:54:30.861Z,106.58
2019-05-02T01:57:03.886Z,104.43
2019-05-02T01:59:33.901Z,117.67
2019-05-02T02:02:03.498Z,109.97
2019-05-02T02:04:33.410Z,104.00
2019-05-02T02:07:03.824Z,112.42
2019-05-02T02:09:33.657Z,109.37
2019-05-02T02:12:04.997Z,110.92
2019-05-02T02:14:35.097Z,110.60
2019-05-02T02:17:05.093Z,107.17
2019-05-02T02:19:39.137Z,109.27
2019-05-02T02:22:09.855Z,109.95
2019-05-02T02:24:44.890Z,107.03
2019-05-02T02:27:14.530Z,104.58
2019-05-02T02:29:45.409Z,105.85
2019-05-02T02:32:20.010Z,99.62
2019-05-02T02:34:48.062Z,99.30
2019-05-02T02:37:18.123Z,101.87
2019-05-02T02:39:48.417Z,78.47
2019-05-02T02:42:25.295Z,103.67
2019-05-02T02:44:52.653Z,93.42
2019-05-02T02:47:22.589Z,92.75
2019-05-02T02:49:55.717Z,96.85
2019-05-02T02:52:24.062Z,109.30
2019-05-02T02:54:54.018Z,97.82
2019-05-02T02:57:28.250Z,101.93
2019-05-02T03:00:06.715Z,96.67
2019-05-02T03:02:26.923Z,97.22
2019-05-02T03:04:56.903Z,102.17
2019-05-02T03:07:28.882Z,91.43
2019-05-02T03:09:59.551Z,98.47
2019-05-02T03:12:36.142Z,97.78
2019-05-02T03:15:21.212Z,100.62
2019-05-02T03:17:48.595Z,101.40
2019-05-02T03:20:18.478Z,98.60
2019-05-02T03:22:48.356Z,103.58
2019-05-02T03:25:25.084Z,104.65
2019-05-02T03:27:50.402Z,99.85
2019-05-02T03:30:30.993Z,102.85
2019-05-02T03:33:06.466Z,103.25
2019-05-02T03:35:40.307Z,96.35
2019-05-02T03:37:54.849Z,102.87
2019-05-02T03:40:25.334Z,105.03
2019-05-02T03:42:55.772Z,96.20
2019-05-02T03:45:25.458Z,106.17
2019-05-02T03:47:55.464Z,106.32
2019-05-02T03:50:32.719Z,95.37
2019-05-02T03:52:57.160Z,95.87
2019-05-02T03:55:31.437Z,103.95
2019-05-02T03:57:59.554Z,95.35
2019-05-02T04:00:29.429Z,99.00
2019-05-02T04:03:02.137Z,97.08
2019-05-02T04:05:33.914Z,92.50
2019-05-02T04:08:05.161Z,90.97
2019-05-02T04:10:52.520Z,92.08
2019-05-02T04:13:21.422Z,86.12
2019-05-02T04:15:51.266Z,87.80
2019-05-02T04:18:21.631Z,83.70
2019-05-02T04:20:51.939Z,82.30
2019-05-02T04:23:27.726Z,87.75
2019-05-02T04:25:55.856Z,79.47
2019-05-02T04:28:25.633Z,76.53
2019-05-02T04:30:55.508Z,79.40
2019-05-02T04:33:29.187Z,75.92
2019-05-02T04:35:59.291Z,74.37
2019-05-02T04:38:39.251Z,69.95
2019-05-02T04:41:00.043Z,71.87
2019-05-02T04:43:29.978Z,73.33
2019-05-02T04:46:00.390Z,72.67
2019-05-02T04:48:34.689Z,73.97
2019-05-02T04:51:09.899Z,74.80
2019-05-02T04:53:41.070Z,70.78
2019-05-02T04:56:18.483Z,72.70
2019-05-02T04:58:49.689Z,65.80
2019-05-02T05:01:21.303Z,67.37
2019-05-02T05:03:58.602Z,67.22
2019-05-02T05:06:22.965Z,60.80
2019-05-02T05:08:52.859Z,60.05
2019-05-02T05:11:24.917Z,57.67
2019-05-02T05:13:57.607Z,63.92
2019-05-02T05:16:25.970Z,58.48
2019-05-02T05:18:57.840Z,57.03
2019-05-02T05:21:28.608Z,60.78
2019-05-02T05:24:01.507Z,54.42
2019-05-02T05:26:33.943Z,58.95
2019-05-02T05:29:05.260Z,51.33
2019-05-02T05:31:35.248Z,58.00
2019-05-02T05:34:05.196Z,53.97
2019-05-02T05:36:35.022Z,52.57
2019-05-02T05:39:08.409Z,55.78
2019-05-02T05:41:37.822Z,53.73
2019-05-02T05:44:07.848Z,56.60
2019-05-02T05:46:40.598Z,56.93
2019-05-02T05:49:12.419Z,53.40
2019-05-02T05:51:40.645Z,47.30
2019-05-02T05:54:10.566Z,55.30
2019-05-02T05:56:43.066Z,52.23
2019-05-02T05:59:11.626Z,52.00
2019-05-02T06:01:41.619Z,35.23
2019-05-02T06:04:13.853Z,45.53
2019-05-02T06:06:43.283Z,48.10
2019-05-02T06:09:13.985Z,52.98
2019-05-02T06:11:43.648Z,42.38
2019-05-02T06:14:13.270Z,45.65
2019-05-02T06:16:46.606Z,47.67
2019-05-02T06:19:17.935Z,42.78
2019-05-02T06:21:46.786Z,47.10
2019-05-02T06:24:17.120Z,43.13
2019-05-02T06:26:49.942Z,43.25
2019-05-02T06:29:20.583Z,46.30
2019-05-02T06:31:51.170Z,46.90
2019-05-02T06:34:20.766Z,52.23
2019-05-02T06:36:50.711Z,51.95
2019-05-02T06:39:20.595Z,51.73
2019-05-02T06:41:51.973Z,48.90
2019-05-02T06:44:24.085Z,43.58
2019-05-02T06:46:59.142Z,48.70
2019-05-02T06:49:26.390Z,50.65
2019-05-02T06:51:57.671Z,45.05
2019-05-02T06:54:27.492Z,48.48
2019-05-02T06:56:58.326Z,44.50
2019-05-02T06:59:28.102Z,41.65
2019-05-02T07:01:58.795Z,44.95
2019-05-02T07:04:28.763Z,50.10
2019-05-02T07:06:59.727Z,46.50
2019-05-02T07:09:40.468Z,46.53
2019-05-02T07:12:01.701Z,47.70
2019-05-02T07:14:31.692Z,41.58
2019-05-02T07:17:18.701Z,50.12
2019-05-02T07:19:58.798Z,42.55
2019-05-02T07:22:27.838Z,41.23
2019-05-02T07:24:57.554Z,40.73
2019-05-02T07:27:28.273Z,43.73
2019-05-02T07:29:59.711Z,43.05
2019-05-02T07:32:29.375Z,36.23
2019-05-02T07:34:59.253Z,46.98
2019-05-02T07:37:28.806Z,50.67
2019-05-02T07:39:58.693Z,41.85
2019-05-02T07:42:28.728Z,45.20
2019-05-02T07:44:58.502Z,40.75
2019-05-02T07:47:28.908Z,39.42
2019-05-02T07:49:58.790Z,40.03
2019-05-02T07:52:28.951Z,43.08
2019-05-02T07:55:01.230Z,38.73
2019-05-02T07:57:32.095Z,48.40
2019-05-02T08:00:02.709Z,44.73
2019-05-02T08:02:32.430Z,43.63
2019-05-02T08:05:02.322Z,39.53
2019-05-02T08:07:34.181Z,47.93
2019-05-02T08:10:04.416Z,47.80
2019-05-02T08:15:07.467Z,45.23
2019-05-02T08:17:34.389Z,43.15
2019-05-02T08:20:08.674Z,46.97
2019-05-02T08:22:38.710Z,43.28
2019-05-02T08:25:10.448Z,47.50
2019-05-02T08:27:44.829Z,45.78
2019-05-02T08:30:16.445Z,45.25
2019-05-02T08:32:46.134Z,48.10
2019-05-02T08:35:15.843Z,52.98
2019-05-02T08:37:45.873Z,52.62
2019-05-02T08:40:15.781Z,55.07
2019-05-02T08:42:45.512Z,57.30
2019-05-02T08:45:15.877Z,53.75
2019-05-02T08:47:48.592Z,53.42
2019-05-02T08:50:18.662Z,56.75
2019-05-02T08:52:48.425Z,59.73
2019-05-02T08:55:18.345Z,53.60
2019-05-02T08:57:48.280Z,55.67
2019-05-02T09:00:18.285Z,47.00
2019-05-02T09:02:48.092Z,56.47
2019-05-02T09:05:18.384Z,63.00
2019-05-02T09:07:48.325Z,63.90
2019-05-02T09:10:18.438Z,64.00
2019-05-02T09:12:48.154Z,58.60
2019-05-02T09:15:18.553Z,65.37
2019-05-02T09:17:52.811Z,63.65
2019-05-02T09:20:23.031Z,61.63
2019-05-02T09:22:55.848Z,71.15
2019-05-02T09:25:24.290Z,64.20
2019-05-02T09:27:54.316Z,65.17
2019-05-02T09:30:25.899Z,57.83
2019-05-02T09:32:57.220Z,62.53
2019-05-02T09:35:27.214Z,67.67
2019-05-02T09:37:56.755Z,66.12
2019-05-02T09:40:26.630Z,57.48
2019-05-02T09:43:01.761Z,63.48
2019-05-02T09:45:36.865Z,59.33
2019-05-02T09:48:07.761Z,52.60
2019-05-02T09:50:38.317Z,54.03
2019-05-02T09:53:07.671Z,56.68
2019-05-02T09:55:42.281Z,58.10
2019-05-02T09:58:10.519Z,52.10
2019-05-02T10:00:48.545Z,57.25
2019-05-02T10:03:19.476Z,56.45
2019-05-02T10:08:18.070Z,54.90
2019-05-02T10:10:47.772Z,56.80
2019-05-02T10:13:17.803Z,60.80
2019-05-02T10:15:48.624Z,57.03
2019-05-02T10:20:48.700Z,61.18
2019-05-02T10:23:20.750Z,53.52
2019-05-02T10:25:51.952Z,55.30
2019-05-02T10:28:22.898Z,58.75
2019-05-02T10:30:56.631Z,58.15
2019-05-02T10:33:27.964Z,57.70
2019-05-02T10:35:57.273Z,62.55
2019-05-02T10:38:27.049Z,53.70
2019-05-02T10:41:01.673Z,61.42
2019-05-02T10:43:28.586Z,55.98
2019-05-02T10:46:01.763Z,57.20
2019-05-02T10:48:33.240Z,60.30
2019-05-02T10:51:26.152Z,59.40
2019-05-02T10:53:56.685Z,65.25
2019-05-02T10:56:27.656Z,66.62
2019-05-02T10:58:57.593Z,64.35
2019-05-02T11:01:29.177Z,65.72
2019-05-02T11:04:02.124Z,64.87
2019-05-02T11:06:32.499Z,61.88
2019-05-02T11:09:02.835Z,64.27
2019-05-02T11:11:33.855Z,66.55
2019-05-02T11:14:14.458Z,74.15
2019-05-02T11:16:52.492Z,66.25
2019-05-02T11:19:33.222Z,67.72
2019-05-02T11:22:03.005Z,66.42
2019-05-02T11:24:32.767Z,63.10
2019-05-02T11:27:02.666Z,65.65
2019-05-02T11:29:32.597Z,60.20
2019-05-02T11:32:02.852Z,59.33
2019-05-02T11:34:32.904Z,40.40
2019-05-02T11:37:02.780Z,43.23
2019-05-02T11:39:43.241Z,46.37
2019-05-02T11:42:04.390Z,38.85
2019-05-02T11:44:34.134Z,35.93
2019-05-02T11:47:04.500Z,36.83
2019-05-02T11:49:34.365Z,36.08
2019-05-02T11:52:04.836Z,29.82
2019-05-02T11:54:34.628Z,37.10
2019-05-02T11:57:04.667Z,35.45
2019-05-02T11:59:34.427Z,37.47
2019-05-02T12:02:17.452Z,30.80
2019-05-02T12:04:47.312Z,26.95
2019-05-02T12:07:15.676Z,27.82
2019-05-02T12:09:52.132Z,26.75
2019-05-02T12:12:17.363Z,27.27
2019-05-02T12:14:47.103Z,24.15
2019-05-02T12:17:17.752Z,16.93
2019-05-02T12:19:47.296Z,16.95
2019-05-02T12:22:17.242Z,17.27
2019-05-02T12:24:47.170Z,21.43
2019-05-02T12:27:16.993Z,15.90
2019-05-02T12:29:50.195Z,20.77
2019-05-02T12:32:18.053Z,14.63
2019-05-02T12:34:47.750Z,17.55
2019-05-02T12:37:17.681Z,16.07
2019-05-02T12:39:47.381Z,19.23
2019-05-02T12:42:17.198Z,19.32
2019-05-02T12:44:47.225Z,18.48
2019-05-02T12:47:16.781Z,17.70
2019-05-02T12:49:46.728Z,18.70
2019-05-02T12:52:16.670Z,20.77
2019-05-02T12:54:46.570Z,19.10
2019-05-02T12:57:25.193Z,21.77
2019-05-02T12:59:55.000Z,20.05
2019-05-02T13:02:43.097Z,20.15
2019-05-02T13:05:13.232Z,22.27
2019-05-02T13:07:50.646Z,19.27
2019-05-02T13:10:17.222Z,21.33
2019-05-02T13:12:47.109Z,25.27
2019-05-02T13:15:17.135Z,26.33
2019-05-02T13:17:48.838Z,26.00
2019-05-02T13:20:22.340Z,22.90
2019-05-02T13:23:09.606Z,27.15
2019-05-02T13:25:39.369Z,24.02
2019-05-02T13:28:09.121Z,23.02
2019-05-02T13:30:51.662Z,21.45
2019-05-02T13:33:27.246Z,24.67
2019-05-02T13:35:56.529Z,29.42
2019-05-02T13:38:26.551Z,27.58
2019-05-02T13:40:56.825Z,30.20
2019-05-02T13:43:28.429Z,25.08
2019-05-02T13:46:06.182Z,29.12
2019-05-02T13:48:35.885Z,28.05
2019-05-02T13:51:05.849Z,30.25
2019-05-02T13:53:37.341Z,32.58
2019-05-02T13:56:12.989Z,31.17
2019-05-02T13:58:43.065Z,29.90
2019-05-02T14:01:13.108Z,36.67
2019-05-02T14:03:42.742Z,35.37
2019-05-02T14:06:12.472Z,35.15
2019-05-02T14:08:47.065Z,33.88
2019-05-02T14:11:35.259Z,33.73
2019-05-02T14:14:05.938Z,34.75
2019-05-02T14:16:35.637Z,40.28
2019-05-02T14:19:05.358Z,40.45
2019-05-02T14:21:35.065Z,43.10
2019-05-02T14:24:05.325Z,38.95
2019-05-02T14:26:34.970Z,38.08
2019-05-02T14:29:07.226Z,37.17
2019-05-02T14:31:36.858Z,45.52
2019-05-02T14:34:24.927Z,45.58
2019-05-02T14:36:59.171Z,46.18
2019-05-02T14:39:26.260Z,38.28
2019-05-02T14:41:56.099Z,40.83
2019-05-02T14:44:36.218Z,40.12
2019-05-02T14:46:57.209Z,41.35
2019-05-02T14:49:27.065Z,44.33
2019-05-02T14:51:57.173Z,40.23
2019-05-02T14:54:28.245Z,38.50
2019-05-02T14:57:01.829Z,32.07
2019-05-02T14:59:37.049Z,34.65
2019-05-02T15:02:08.626Z,34.58
2019-05-02T15:04:44.397Z,28.67
2019-05-02T15:07:12.899Z,25.97
2019-05-02T15:09:42.678Z,26.02
2019-05-02T15:12:15.875Z,29.73
2019-05-02T15:14:43.946Z,23.92
2019-05-02T15:17:13.838Z,24.98
2019-05-02T15:19:43.766Z,26.07
2019-05-02T15:22:13.685Z,27.10
2019-05-02T15:24:43.586Z,24.57
2019-05-02T15:27:17.695Z,26.33
2019-05-02T15:29:45.053Z,23.67
2019-05-02T15:32:16.626Z,20.48
2019-05-02T15:34:54.178Z,19.82
2019-05-02T15:37:25.691Z,16.77
2019-05-02T15:42:27.026Z,13.98
2019-05-02T15:45:01.419Z,19.27
2019-05-02T15:47:28.461Z,17.80
2019-05-02T15:49:58.311Z,15.10
2019-05-02T15:52:29.858Z,16.02
2019-05-02T15:55:02.107Z,15.93
2019-05-02T15:57:36.381Z,14.30
2019-05-02T16:00:05.510Z,15.40
2019-05-02T16:02:35.238Z,18.25
2019-05-02T16:05:06.995Z,15.48
2019-05-02T16:07:38.050Z,13.50
2019-05-02T16:10:13.133Z,15.43
2019-05-02T16:12:44.776Z,19.07
2019-05-02T16:15:21.488Z,13.43
2019-05-02T16:17:46.614Z,16.17
2019-05-02T16:20:40.673Z,15.95
2019-05-02T16:23:09.388Z,17.77
2019-05-02T16:25:39.281Z,12.65
2019-05-02T16:28:08.834Z,13.65
2019-05-02T16:30:44.147Z,12.63
2019-05-02T16:33:18.903Z,13.62
2019-05-02T16:35:46.318Z,17.65
2019-05-02T16:38:15.467Z,13.78
2019-05-02T16:40:45.388Z,14.67
2019-05-02T16:43:15.276Z,14.38
2019-05-02T16:45:45.222Z,15.08
2019-05-02T16:48:15.088Z,11.40
2019-05-02T16:50:45.116Z,13.35
2019-05-02T16:53:17.125Z,9.98
2019-05-02T16:55:46.440Z,11.83
2019-05-02T16:58:16.082Z,10.65
2019-05-02T17:00:46.027Z,9.18
2019-05-02T17:03:17.346Z,10.17
2019-05-02T17:05:49.423Z,10.60
2019-05-02T17:08:35.953Z,10.53
2019-05-02T17:11:16.412Z,14.75
2019-05-02T17:13:46.291Z,15.03
2019-05-02T17:16:17.323Z,8.33
2019-05-02T17:18:48.373Z,9.95
2019-05-02T17:21:18.974Z,8.05
2019-05-02T17:23:50.426Z,9.07
2019-05-02T17:26:20.357Z,7.22
2019-05-02T17:28:52.078Z,12.18
2019-05-02T17:31:23.016Z,12.00
2019-05-02T17:33:54.804Z,10.45
2019-05-02T17:36:28.471Z,9.35
2019-05-02T17:38:59.247Z,12.43
2019-05-02T17:41:27.809Z,8.40
2019-05-02T17:43:59.093Z,9.63
2019-05-02T17:46:51.716Z,8.43
2019-05-02T17:49:23.849Z,11.85
2019-05-02T17:52:11.375Z,10.08
2019-05-02T17:54:42.242Z,12.50
2019-05-02T17:57:12.198Z,7.37
2019-05-02T17:59:42.278Z,8.18
2019-05-02T18:02:15.857Z,9.80
2019-05-02T18:04:46.573Z,9.03
2019-05-02T18:07:18.134Z,9.85
2019-05-02T18:09:47.874Z,7.85
2019-05-02T18:12:17.781Z,8.98
2019-05-02T18:14:51.398Z,9.73
2019-05-02T18:17:19.266Z,10.82
2019-05-02T18:19:49.166Z,13.35
2019-05-02T18:22:24.225Z,9.85
2019-05-02T18:24:52.534Z,7.92
2019-05-02T18:27:22.389Z,11.55
2019-05-02T18:29:52.130Z,10.53
2019-05-02T18:32:25.078Z,14.95
2019-05-02T18:34:56.723Z,14.15
2019-05-02T18:37:26.697Z,12.55
2019-05-02T18:39:56.269Z,14.25
2019-05-02T18:42:26.180Z,13.60
2019-05-02T18:44:55.861Z,12.03
2019-05-02T18:47:25.687Z,13.05
2019-05-02T18:50:04.275Z,17.27
2019-05-02T18:52:36.476Z,11.40
2019-05-02T18:54:58.630Z,12.55
2019-05-02T18:57:29.582Z,15.70
2019-05-02T18:59:59.285Z,17.50
2019-05-02T19:02:32.584Z,13.15
2019-05-02T19:05:01.962Z,11.63
2019-05-02T19:07:35.624Z,13.08
2019-05-02T19:10:07.373Z,20.60
2019-05-02T19:12:38.545Z,16.07
2019-05-02T19:17:39.214Z,14.87
2019-05-02T19:20:24.721Z,13.95
2019-05-02T19:22:56.849Z,21.75
2019-05-02T19:25:26.032Z,17.27
2019-05-02T19:27:59.235Z,15.15
2019-05-02T19:30:32.501Z,11.90
2019-05-02T19:33:07.636Z,17.25
2019-05-02T19:35:37.608Z,18.15
2019-05-02T19:38:06.248Z,12.88
2019-05-02T19:40:36.081Z,18.30
2019-05-02T19:43:07.666Z,12.65
2019-05-02T19:45:37.557Z,17.70
2019-05-02T19:48:07.654Z,14.58
2019-05-02T19:50:41.639Z,15.53
2019-05-02T19:53:17.153Z,15.70
2019-05-02T19:55:42.954Z,19.73
2019-05-02T19:58:12.930Z,19.10
2019-05-02T20:00:46.252Z,16.30
2019-05-02T20:03:21.574Z,12.80
2019-05-02T20:05:48.330Z,17.85
2019-05-02T20:08:21.465Z,22.87
2019-05-02T20:10:49.397Z,19.42
2019-05-02T20:13:27.974Z,16.27
2019-05-02T20:15:57.121Z,22.30
2019-05-02T20:18:27.973Z,19.95
2019-05-02T20:21:12.083Z,22.48
2019-05-02T20:23:39.038Z,23.62
2019-05-02T20:26:09.484Z,20.00
2019-05-02T20:28:42.154Z,25.12
2019-05-02T20:31:12.341Z,19.05
2019-05-02T20:33:43.047Z,20.75
2019-05-02T20:36:13.285Z,13.72
2019-05-02T20:38:43.136Z,20.13
2019-05-02T20:41:13.042Z,24.63
2019-05-02T20:43:44.887Z,21.85
2019-05-02T20:46:14.618Z,20.10
2019-05-02T20:48:44.333Z,20.80
2019-05-02T20:51:13.960Z,19.30
2019-05-02T20:53:43.874Z,21.60
2019-05-02T20:56:13.672Z,18.73
2019-05-02T20:58:43.201Z,18.82
2019-05-02T21:01:13.107Z,21.02
2019-05-02T21:03:42.957Z,16.27
2019-05-02T21:06:14.646Z,22.93
2019-05-02T21:08:55.641Z,18.17
2019-05-02T21:13:55.452Z,12.68
2019-05-02T21:16:26.454Z,17.30
2019-05-02T21:19:01.788Z,20.30
2019-05-02T21:21:33.124Z,16.48
2019-05-02T21:24:03.573Z,12.45
2019-05-02T21:26:33.244Z,15.43
2019-05-02T21:29:03.215Z,18.12
2019-05-02T21:31:33.070Z,10.73
2019-05-02T21:34:02.965Z,11.35
2019-05-02T21:36:32.998Z,12.60
2019-05-02T21:39:02.874Z,22.13
2019-05-02T21:41:33.144Z,15.85
2019-05-02T21:44:03.046Z,16.15
2019-05-02T21:46:32.949Z,13.68
2019-05-02T21:49:04.064Z,12.58
2019-05-02T21:51:35.667Z,14.43
2019-05-02T21:54:22.641Z,16.40
2019-05-02T21:56:54.340Z,13.88
2019-05-02T21:59:24.229Z,17.10
2019-05-02T22:01:56.022Z,18.37
2019-05-02T22:04:25.790Z,14.20
2019-05-02T22:06:55.613Z,14.53
2019-05-02T22:09:25.670Z,12.60
2019-05-02T22:11:55.453Z,15.93
2019-05-02T22:14:25.418Z,13.25
2019-05-02T22:16:55.283Z,10.43
2019-05-02T22:19:25.236Z,13.75
2019-05-02T22:21:55.098Z,17.83
2019-05-02T22:24:25.082Z,20.85
2019-05-02T22:26:54.921Z,16.70
2019-05-02T22:29:24.489Z,13.95
2019-05-02T22:31:54.625Z,12.10
2019-05-02T22:34:25.481Z,19.50
2019-05-02T22:36:55.393Z,15.55
2019-05-02T22:39:36.153Z,9.58
2019-05-02T22:42:06.850Z,10.15
2019-05-02T22:44:36.625Z,13.08
2019-05-02T22:47:06.319Z,12.78
2019-05-02T22:49:36.060Z,12.33
2019-05-02T22:52:05.664Z,11.33
2019-05-02T22:54:35.574Z,12.03
2019-05-02T22:57:05.360Z,13.45
2019-05-02T22:59:34.911Z,10.38
2019-05-02T23:02:04.985Z,17.10
2019-05-02T23:04:34.731Z,10.33
2019-05-02T23:07:04.858Z,11.80
2019-05-02T23:09:34.823Z,13.40
2019-05-02T23:12:05.220Z,15.80
2019-05-02T23:14:34.869Z,9.95
2019-05-02T23:17:05.031Z,9.73
2019-05-02T23:19:37.989Z,8.83
2019-05-02T23:22:07.888Z,7.95
2019-05-02T23:24:48.726Z,8.43
2019-05-02T23:27:22.794Z,9.18
2019-05-02T23:29:52.347Z,9.48
2019-05-02T23:32:23.816Z,10.88
2019-05-02T23:34:53.858Z,6.97
2019-05-02T23:37:23.860Z,6.12
2019-05-02T23:39:53.676Z,7.63
2019-05-02T23:42:23.653Z,10.72
2019-05-02T23:44:53.558Z,8.10
2019-05-02T23:47:23.419Z,7.95
2019-05-02T23:49:53.416Z,8.17
2019-05-02T23:52:22.998Z,7.83
2019-05-02T23:54:52.795Z,8.68
2019-05-02T23:57:23.048Z,7.78
2019-05-02T23:59:53.048Z,9.60
